aviador You're here:

LFBH Decoded Metar

LA ROCHELLE/LALE in FRANCE
Report Time2018-07-18 19:30:00
UTC Time2018-07-18 20:02:10
Flight Rules vfr VFR
Wind300° at 09 kt
W.Decomp.*RWY 27: 7.7 kt HW 4.6 kt RCW
W.Rank300° ranks 1
Current wind is below 300° avg. (11.4)
Visibility9999 m
Phenomena:N/A
Clouds:N/A
Expected CloudBase > 2,000 ft AGL from Temp-Dew spread
CeilingNone
Temp21°C (ISA +6)
Dew Point16°C (73% RH)
AAT19.7°C
QNH1016 hPa
Density Alt883 ft
Elevation33 ft
Report Wrong Elevation
Raw Report
LFBH 181930Z AUTO 30009KT CAVOK 21/16 Q1016 NOSIG=

Extra information for LFBH:More info

Metar Taf Metar & Taf Last 4 Metars F.Rules Stats Wind Profile Meteogram Temp Stats Airport Information Weather charts Add Link Nearby VenuesMetar ALERT Operation Metar Decoded Social comments